Time;durP1;ratioP1;P1;durP2;ratioP2;P2;SDS_P1;SDS_P2;PMS_P1;PMS_P2;Temp;Humidity;BMP_temperature;BMP_pressure;BME280_temperature;BME280_humidity;BME280_pressure;Samples;Min_cycle;Max_cycle;Signal;HPM_P1;HPM_P2
2022/08/21 00:00:42;;;;;;;0.00;0.00;;;;;;;17.07;81.68;100514.16;4971561;28;20649;-75
2022/08/21 00:03:09;;;;;;;0.00;0.00;;;;;;;16.89;82.95;100512.84;4972449;28;20894;-74
2022/08/21 00:05:38;;;;;;;0.03;0.03;;;;;;;16.71;84.20;100509.59;4973009;28;20182;-75
2022/08/21 00:08:04;;;;;;;0.00;0.00;;;;;;;16.51;85.48;100503.09;4972826;28;20170;-75
2022/08/21 00:10:30;;;;;;;0.20;0.20;;;;;;;16.33;86.79;100502.56;4972989;28;20574;-75
2022/08/21 00:12:56;;;;;;;0.00;0.00;;;;;;;16.16;87.90;100491.00;4972762;28;20600;-75
2022/08/21 00:15:26;;;;;;;0.00;0.00;;;;;;;16.08;88.44;100484.50;4972446;28;20169;-75
2022/08/21 00:17:52;;;;;;;0.00;0.00;;;;;;;16.02;89.05;100483.09;4971351;28;20535;-75
2022/08/21 00:20:18;;;;;;;0.00;0.00;;;;;;;16.01;89.25;100485.06;4975241;28;20170;-75
2022/08/21 00:22:44;;;;;;;0.00;0.00;;;;;;;16.05;89.64;100483.22;4975295;28;20178;-75
2022/08/21 00:25:10;;;;;;;0.00;0.00;;;;;;;16.11;89.52;100481.03;4972571;28;20518;-75
2022/08/21 00:27:36;;;;;;;0.00;0.00;;;;;;;16.15;88.86;100478.38;4972721;28;20186;-75
2022/08/21 00:30:03;;;;;;;0.00;0.00;;;;;;;16.15;88.47;100481.94;4971787;28;20535;-75
2022/08/21 00:32:29;;;;;;;0.00;0.00;;;;;;;16.15;88.19;100481.13;4972476;28;20382;-76
2022/08/21 00:34:54;;;;;;;0.00;0.00;;;;;;;16.11;88.00;100480.22;4972171;28;20182;-76
2022/08/21 00:37:20;;;;;;;0.00;0.00;;;;;;;16.08;88.49;100486.44;4972629;28;20162;-74
2022/08/21 00:39:47;;;;;;;0.00;0.00;;;;;;;16.07;89.02;100477.38;4972387;28;20170;-75
2022/08/21 00:42:15;;;;;;;0.00;0.00;;;;;;;16.02;88.98;100477.59;4972387;28;20166;-75
2022/08/21 00:44:45;;;;;;;0.00;0.00;;;;;;;16.01;89.07;100474.03;4970563;28;20673;-75
2022/08/21 00:47:10;;;;;;;0.00;0.00;;;;;;;16.09;89.37;100482.53;4972220;28;20656;-75
2022/08/21 00:49:37;;;;;;;0.00;0.00;;;;;;;16.02;88.93;100475.63;4972190;28;20178;-76
2022/08/21 00:52:05;;;;;;;0.10;0.10;;;;;;;16.11;88.71;100477.47;4972065;28;20240;-76
2022/08/21 00:54:31;;;;;;;0.00;0.00;;;;;;;16.13;88.62;100475.97;4971725;28;20240;-75
2022/08/21 00:57:01;;;;;;;0.00;0.00;;;;;;;16.14;88.27;100476.78;4971966;28;20269;-75
2022/08/21 00:59:29;;;;;;;0.00;0.00;;;;;;;16.16;87.61;100483.53;4971964;28;20173;-75
2022/08/21 01:01:55;;;;;;;0.00;0.00;;;;;;;16.20;87.03;100478.13;4971348;28;20185;-75
2022/08/21 01:04:22;;;;;;;0.00;0.00;;;;;;;16.13;87.04;100478.72;4971815;28;20177;-75
2022/08/21 01:06:47;;;;;;;0.00;0.00;;;;;;;16.12;86.76;100490.91;4971973;28;20704;-74
2022/08/21 01:09:13;;;;;;;0.00;0.00;;;;;;;16.10;87.54;100486.91;4971970;28;20197;-75
2022/08/21 01:11:42;;;;;;;0.00;0.00;;;;;;;16.07;88.22;100488.41;4971691;28;20197;-75
2022/08/21 01:14:10;;;;;;;0.00;0.00;;;;;;;15.99;88.38;100487.38;4971445;28;20174;-75
2022/08/21 01:16:35;;;;;;;0.00;0.00;;;;;;;15.84;89.40;100479.81;4971951;28;20188;-75
2022/08/21 01:19:01;;;;;;;0.00;0.00;;;;;;;15.67;91.01;100485.56;4971779;28;20190;-76
2022/08/21 01:21:27;;;;;;;0.00;0.00;;;;;;;15.48;92.08;100484.16;4970404;28;20228;-75
2022/08/21 01:23:55;;;;;;;0.00;0.00;;;;;;;15.35;93.14;100481.72;4970092;28;20673;-75
2022/08/21 01:26:26;;;;;;;0.00;0.00;;;;;;;15.26;93.96;100481.03;4971612;28;20185;-75
2022/08/21 01:29:00;;;;;;;0.00;0.00;;;;;;;15.19;94.67;100481.59;4971841;28;20257;-75
2022/08/21 01:31:29;;;;;;;0.00;0.00;;;;;;;15.11;95.55;100486.03;4971459;28;20204;-75
2022/08/21 01:33:55;;;;;;;0.00;0.00;;;;;;;15.00;96.13;100487.59;4973533;28;20178;-75
2022/08/21 01:36:22;;;;;;;0.20;0.20;;;;;;;14.89;96.32;100481.72;4975486;28;20229;-74
2022/08/21 01:38:47;;;;;;;0.00;0.00;;;;;;;14.87;96.80;100481.25;4974208;28;20174;-75
2022/08/21 01:41:14;;;;;;;0.00;0.00;;;;;;;14.91;97.06;100480.59;4975309;28;20188;-75
2022/08/21 01:43:40;;;;;;;0.20;0.20;;;;;;;14.95;97.09;100487.03;4973849;28;20170;-76
2022/08/21 01:46:05;;;;;;;0.00;0.00;;;;;;;15.02;97.25;100481.75;4975348;28;20177;-75
2022/08/21 01:48:30;;;;;;;0.00;0.00;;;;;;;15.07;97.20;100481.56;4975239;28;20166;-75
2022/08/21 01:50:57;;;;;;;0.00;0.00;;;;;;;15.10;96.59;100480.88;4975363;28;20641;-75
2022/08/21 01:53:22;;;;;;;0.00;0.00;;;;;;;15.07;96.52;100485.13;4974981;28;20170;-74
2022/08/21 01:55:48;;;;;;;0.00;0.00;;;;;;;15.05;96.35;100486.59;4974985;28;20661;-75
2022/08/21 01:58:13;;;;;;;0.00;0.00;;;;;;;14.94;96.40;100477.16;4975056;28;20188;-75
2022/08/21 02:00:39;;;;;;;0.00;0.00;;;;;;;14.84;96.90;100481.94;4975289;28;20280;-75
2022/08/21 02:03:04;;;;;;;0.00;0.00;;;;;;;14.77;97.43;100483.66;4975048;28;20189;-75
2022/08/21 02:05:30;;;;;;;0.00;0.00;;;;;;;14.57;98.67;100480.56;4974853;28;20701;-76
2022/08/21 02:07:55;;;;;;;0.00;0.00;;;;;;;14.42;99.75;100472.91;4973669;28;20658;-75
2022/08/21 02:10:29;;;;;;;0.00;0.00;;;;;;;14.39;100.00;100475.53;4975300;28;20178;-74
2022/08/21 02:12:55;;;;;;;0.00;0.00;;;;;;;14.49;100.00;100475.19;4974837;28;20911;-75
2022/08/21 02:15:21;;;;;;;0.00;0.00;;;;;;;14.59;100.00;100472.00;4973374;28;20204;-75
2022/08/21 02:17:50;;;;;;;0.00;0.00;;;;;;;14.59;100.00;100466.50;4975163;28;20174;-75
2022/08/21 02:20:22;;;;;;;0.00;0.00;;;;;;;14.53;100.00;100465.91;4974811;28;20182;-74
2022/08/21 02:22:49;;;;;;;0.00;0.00;;;;;;;14.44;99.96;100464.38;4974717;28;20178;-75
2022/08/21 02:25:15;;;;;;;0.13;0.13;;;;;;;14.30;100.00;100461.88;4974341;28;20673;-75
2022/08/21 02:27:42;;;;;;;0.00;0.00;;;;;;;14.25;100.00;100462.88;4974740;28;20178;-75
2022/08/21 02:30:13;;;;;;;0.00;0.00;;;;;;;14.25;100.00;100462.88;4974584;28;20257;-75
2022/08/21 02:32:38;;;;;;;0.00;0.00;;;;;;;14.29;100.00;100454.75;4974507;28;20672;-75
2022/08/21 02:35:04;;;;;;;0.00;0.00;;;;;;;14.23;100.00;100459.66;4974302;28;20185;-75
2022/08/21 02:37:30;;;;;;;0.00;0.00;;;;;;;14.41;100.00;100451.28;4974229;28;20174;-74
2022/08/21 02:39:55;;;;;;;0.00;0.00;;;;;;;14.57;100.00;100455.84;4974446;28;20178;-75
2022/08/21 02:42:21;;;;;;;0.00;0.00;;;;;;;14.62;100.00;100448.53;4974410;28;20206;-76
2022/08/21 02:44:46;;;;;;;0.00;0.00;;;;;;;14.62;100.00;100456.78;4971531;28;20201;-75
2022/08/21 02:47:11;;;;;;;0.00;0.00;;;;;;;14.69;100.00;100457.03;4974319;28;20216;-75
2022/08/21 02:49:37;;;;;;;0.00;0.00;;;;;;;14.86;100.00;100452.16;4972962;28;20174;-75
2022/08/21 02:52:02;;;;;;;0.00;0.00;;;;;;;14.88;100.00;100447.09;4973998;28;20236;-74
2022/08/21 02:54:27;;;;;;;0.00;0.00;;;;;;;14.98;100.00;100451.38;4973921;28;20204;-75
2022/08/21 02:56:53;;;;;;;0.00;0.00;;;;;;;15.05;100.00;100451.63;4974150;28;20182;-75
2022/08/21 02:59:18;;;;;;;0.00;0.00;;;;;;;14.81;98.87;100449.63;4974179;28;20232;-75
2022/08/21 03:01:44;;;;;;;0.00;0.00;;;;;;;14.65;98.77;100453.34;4974161;28;20186;-75
2022/08/21 03:04:09;;;;;;;0.00;0.00;;;;;;;14.56;98.61;100447.94;4973812;28;20178;-76
2022/08/21 03:06:34;;;;;;;0.00;0.00;;;;;;;14.85;98.54;100456.03;4974439;28;20182;-75
2022/08/21 03:09:00;;;;;;;0.00;0.00;;;;;;;15.01;97.17;100455.38;4974031;28;20170;-76
2022/08/21 03:11:26;;;;;;;0.00;0.00;;;;;;;15.08;96.06;100453.69;4973737;28;20202;-75
2022/08/21 03:13:51;;;;;;;0.00;0.00;;;;;;;15.14;95.14;100448.78;4972418;28;20268;-75
2022/08/21 03:16:19;;;;;;;0.00;0.00;;;;;;;15.06;94.02;100455.19;4973784;28;20638;-75
2022/08/21 03:18:44;;;;;;;0.00;0.00;;;;;;;14.84;93.60;100457.19;4973791;28;20539;-74
2022/08/21 03:21:10;;;;;;;0.00;0.00;;;;;;;14.63;94.38;100448.19;4973539;28;20182;-75
2022/08/21 03:23:36;;;;;;;0.00;0.00;;;;;;;14.49;95.91;100453.19;4973346;28;20192;-75
2022/08/21 03:26:01;;;;;;;0.00;0.00;;;;;;;14.30;96.73;100453.63;4972315;28;20204;-75
2022/08/21 03:28:27;;;;;;;0.10;0.10;;;;;;;14.15;98.29;100457.78;4973500;28;20200;-75
2022/08/21 03:30:52;;;;;;;0.00;0.00;;;;;;;14.04;99.28;100451.09;4973564;28;20178;-74
2022/08/21 03:33:19;;;;;;;0.00;0.00;;;;;;;13.99;100.00;100448.53;4973235;28;20748;-75
2022/08/21 03:35:57;;;;;;;0.00;0.00;;;;;;;13.98;100.00;100450.47;4973367;28;20185;-75
2022/08/21 03:38:23;;;;;;;0.10;0.10;;;;;;;14.02;100.00;100447.84;4972132;28;20252;-75
2022/08/21 03:40:48;;;;;;;0.00;0.00;;;;;;;13.96;100.00;100444.50;4973247;28;20491;-75
2022/08/21 03:43:14;;;;;;;0.00;0.00;;;;;;;13.97;100.00;100448.88;4971929;28;20214;-74
2022/08/21 03:45:40;;;;;;;0.00;0.00;;;;;;;14.08;100.00;100449.28;4973460;28;20697;-75
2022/08/21 03:48:06;;;;;;;0.00;0.00;;;;;;;14.16;100.00;100450.34;4972031;28;20181;-75
2022/08/21 03:50:34;;;;;;;0.00;0.00;;;;;;;14.20;100.00;100443.84;4973165;28;20177;-75
2022/08/21 03:52:59;;;;;;;0.00;0.00;;;;;;;14.28;100.00;100437.47;4972973;28;20201;-76
2022/08/21 03:55:25;;;;;;;0.00;0.00;;;;;;;14.26;100.00;100448.00;4972801;28;20190;-76
2022/08/21 03:57:51;;;;;;;0.00;0.00;;;;;;;14.12;100.00;100452.97;4972597;28;20257;-75
2022/08/21 04:00:18;;;;;;;0.00;0.00;;;;;;;14.35;100.00;100458.13;4971933;28;20265;-75
2022/08/21 04:02:44;;;;;;;0.00;0.00;;;;;;;14.50;100.00;100460.28;4972789;28;20182;-75
2022/08/21 04:05:12;;;;;;;0.00;0.00;;;;;;;14.50;100.00;100471.28;4972722;28;20242;-75
2022/08/21 04:07:37;;;;;;;0.00;0.00;;;;;;;14.48;100.00;100465.31;4972792;28;20752;-75
2022/08/21 04:10:05;;;;;;;0.00;0.00;;;;;;;14.53;100.00;100467.84;4972698;28;20308;-74
2022/08/21 04:12:30;;;;;;;0.00;0.00;;;;;;;14.54;100.00;100462.00;4973010;28;20565;-75
2022/08/21 04:14:55;;;;;;;3.60;1.50;;;;;;;14.62;100.00;100465.03;4971124;28;20182;-75
2022/08/21 04:17:21;;;;;;;0.00;0.00;;;;;;;14.67;100.00;100471.13;4972567;28;20664;-75
2022/08/21 04:19:46;;;;;;;0.00;0.00;;;;;;;14.67;99.98;100473.88;4972739;28;20297;-75
2022/08/21 04:22:12;;;;;;;0.00;0.00;;;;;;;14.70;99.40;100475.13;4972478;28;20308;-75
2022/08/21 04:24:37;;;;;;;0.00;0.00;;;;;;;14.71;99.69;100479.50;4972331;28;20184;-75
2022/08/21 04:27:02;;;;;;;0.00;0.00;;;;;;;14.72;100.00;100479.16;4972559;28;20260;-75
2022/08/21 04:29:28;;;;;;;0.00;0.00;;;;;;;14.63;100.00;100475.69;4972541;28;20215;-75
2022/08/21 04:31:54;;;;;;;0.00;0.00;;;;;;;14.53;100.00;100481.59;4972172;28;20434;-75
2022/08/21 04:34:19;;;;;;;0.00;0.00;;;;;;;14.67;100.00;100482.13;4972169;28;20186;-75
2022/08/21 04:36:45;;;;;;;0.00;0.00;;;;;;;14.77;100.00;100481.72;4972474;28;20225;-75
2022/08/21 04:39:10;;;;;;;0.00;0.00;;;;;;;14.82;100.00;100478.72;4972308;28;20205;-76
2022/08/21 04:41:36;;;;;;;0.00;0.00;;;;;;;14.89;100.00;100481.72;4971214;28;20184;-76
2022/08/21 04:44:02;;;;;;;0.00;0.00;;;;;;;14.96;100.00;100483.13;4972063;28;20622;-75
2022/08/21 04:46:28;;;;;;;0.00;0.00;;;;;;;15.00;99.13;100489.56;4972078;28;20217;-76
2022/08/21 04:48:54;;;;;;;0.00;0.00;;;;;;;15.00;98.50;100487.59;4971998;28;20245;-75
2022/08/21 04:51:25;;;;;;;0.00;0.00;;;;;;;14.98;98.63;100492.66;4972075;28;20884;-75
2022/08/21 04:54:12;;;;;;;0.00;0.00;;;;;;;15.04;99.10;100490.47;4971626;28;20809;-75
2022/08/21 04:56:42;;;;;;;0.00;0.00;;;;;;;15.00;98.51;100489.56;4971504;28;20624;-75
2022/08/21 04:59:31;;;;;;;0.00;0.00;;;;;;;14.93;98.37;100489.31;4971875;28;20180;-75
2022/08/21 05:01:57;;;;;;;0.00;0.00;;;;;;;14.92;99.05;100498.72;4971795;28;20205;-75
2022/08/21 05:04:26;;;;;;;0.00;0.00;;;;;;;14.84;99.22;100498.44;4971756;28;20181;-75
2022/08/21 05:06:56;;;;;;;0.00;0.00;;;;;;;14.71;99.31;100504.25;4971830;28;20189;-76
2022/08/21 05:09:24;;;;;;;0.00;0.00;;;;;;;14.62;100.00;100498.84;4971034;28;20177;-75
2022/08/21 05:11:51;;;;;;;0.00;0.00;;;;;;;14.83;100.00;100502.34;4971786;28;20201;-76
2022/08/21 05:14:16;;;;;;;0.00;0.00;;;;;;;14.98;100.00;100508.34;4971641;28;20391;-76
2022/08/21 05:16:43;;;;;;;0.00;0.00;;;;;;;15.02;100.00;100503.78;4972120;28;20625;-75
2022/08/21 05:19:09;;;;;;;0.00;0.00;;;;;;;15.16;100.00;100499.56;4971763;28;20272;-76
2022/08/21 05:21:40;;;;;;;0.00;0.00;;;;;;;15.31;99.63;100511.06;4971656;28;20178;-75
2022/08/21 05:24:06;;;;;;;0.00;0.00;;;;;;;15.21;99.46;100500.50;4974452;28;20186;-76
2022/08/21 05:26:32;;;;;;;0.00;0.00;;;;;;;15.19;99.58;100503.63;4973138;28;20694;-75
2022/08/21 05:28:57;;;;;;;0.00;0.00;;;;;;;15.30;98.95;100493.75;4971714;28;20237;-74
2022/08/21 05:31:23;;;;;;;0.00;0.00;;;;;;;15.47;98.38;100499.03;4971665;28;20666;-76
2022/08/21 05:33:48;;;;;;;0.00;0.00;;;;;;;15.57;98.05;100508.00;4971469;28;20178;-75
2022/08/21 05:36:14;;;;;;;0.10;0.10;;;;;;;15.58;96.87;100515.13;4971888;28;20249;-75
2022/08/21 05:38:39;;;;;;;0.00;0.00;;;;;;;15.56;96.66;100501.69;4971530;28;20389;-76
2022/08/21 05:41:07;;;;;;;0.00;0.00;;;;;;;15.58;97.98;100493.88;4971436;28;20264;-76
2022/08/21 05:43:35;;;;;;;0.00;0.00;;;;;;;15.71;98.68;100503.00;4971525;28;20261;-76
2022/08/21 05:46:02;;;;;;;0.00;0.00;;;;;;;15.77;98.38;100502.44;4971544;28;20174;-75
2022/08/21 05:48:27;;;;;;;0.00;0.00;;;;;;;15.67;98.16;100505.63;4971411;28;20174;-75
2022/08/21 05:50:52;;;;;;;0.00;0.00;;;;;;;15.50;99.52;100499.53;4971736;28;20184;-75
2022/08/21 05:53:20;;;;;;;0.00;0.00;;;;;;;15.42;100.00;100496.53;4971123;28;20289;-76
2022/08/21 05:55:46;;;;;;;0.00;0.00;;;;;;;15.44;100.00;100496.97;4971425;28;20645;-75
2022/08/21 05:58:19;;;;;;;0.00;0.00;;;;;;;15.71;100.00;100501.03;4971422;28;20174;-75
2022/08/21 06:00:47;;;;;;;0.00;0.00;;;;;;;15.76;100.00;100500.00;4971448;28;20209;-76
2022/08/21 06:03:19;;;;;;;0.00;0.00;;;;;;;15.95;100.00;100519.53;4973678;28;20269;-75
2022/08/21 06:05:45;;;;;;;0.00;0.00;;;;;;;16.00;100.00;100494.47;4974821;28;20174;-75
2022/08/21 06:08:10;;;;;;;0.00;0.00;;;;;;;16.11;100.00;100502.28;4971480;28;20177;-76
2022/08/21 06:10:36;;;;;;;0.00;0.00;;;;;;;16.17;99.18;100501.69;4971633;28;20170;-76
2022/08/21 06:13:01;;;;;;;0.00;0.00;;;;;;;16.22;97.65;100506.97;4971579;28;20206;-75
2022/08/21 06:15:27;;;;;;;0.00;0.00;;;;;;;16.27;96.60;100509.47;4971205;28;20273;-75
2022/08/21 06:17:53;;;;;;;0.00;0.00;;;;;;;16.31;96.38;100507.63;4971335;28;20181;-75
2022/08/21 06:20:18;;;;;;;0.00;0.00;;;;;;;16.38;96.26;100509.00;4973508;28;20170;-75
2022/08/21 06:22:44;;;;;;;0.00;0.00;;;;;;;16.36;94.83;100510.16;4975026;28;20708;-74
2022/08/21 06:25:09;;;;;;;0.00;0.00;;;;;;;16.46;95.45;100516.31;4974488;28;20497;-76
2022/08/21 06:27:35;;;;;;;0.00;0.00;;;;;;;16.53;95.13;100511.03;4973387;28;20227;-75
2022/08/21 06:30:00;;;;;;;0.00;0.00;;;;;;;16.61;94.74;100519.16;4974634;28;20176;-75
2022/08/21 06:32:25;;;;;;;0.00;0.00;;;;;;;16.75;94.84;100515.22;4974540;28;20716;-75
2022/08/21 06:34:51;;;;;;;0.00;0.00;;;;;;;16.88;94.45;100522.28;4974255;28;20248;-75
2022/08/21 06:37:16;;;;;;;0.00;0.00;;;;;;;16.99;93.42;100525.34;4974462;28;20488;-75
2022/08/21 06:39:42;;;;;;;0.10;0.10;;;;;;;17.15;93.39;100528.94;4974440;28;20205;-75
2022/08/21 06:42:13;;;;;;;0.30;0.30;;;;;;;17.33;89.60;100526.66;4973025;28;20186;-75
2022/08/21 06:44:38;;;;;;;0.63;0.63;;;;;;;17.47;88.30;100521.50;4974241;28;20193;-75
2022/08/21 06:47:04;;;;;;;0.00;0.00;;;;;;;17.49;88.65;100530.22;4974239;28;20634;-75
2022/08/21 06:49:29;;;;;;;0.10;0.10;;;;;;;17.50;89.57;100531.81;4973130;28;20181;-75
2022/08/21 06:51:55;;;;;;;0.00;0.00;;;;;;;17.49;90.73;100533.78;4974175;28;20214;-75
2022/08/21 06:54:20;;;;;;;0.77;0.50;;;;;;;17.52;92.23;100535.88;4973778;28;20277;-75
2022/08/21 06:56:46;;;;;;;0.13;0.13;;;;;;;17.51;93.32;100533.47;4974289;28;20178;-75
2022/08/21 06:59:11;;;;;;;0.00;0.00;;;;;;;17.45;94.03;100530.16;4974107;28;20180;-75
2022/08/21 07:01:36;;;;;;;0.00;0.00;;;;;;;17.44;95.12;100533.25;4973774;28;20178;-75
2022/08/21 07:04:02;;;;;;;0.33;0.33;;;;;;;17.46;95.50;100531.75;4973980;28;20576;-75
2022/08/21 07:06:27;;;;;;;0.50;0.30;;;;;;;17.51;94.95;100527.94;4973985;28;20655;-75
2022/08/21 07:08:53;;;;;;;0.53;0.53;;;;;;;17.65;95.28;100530.22;4973895;28;20174;-75
2022/08/21 07:11:21;;;;;;;0.60;0.60;;;;;;;17.69;94.17;100518.16;4974157;28;20178;-75
2022/08/21 07:13:48;;;;;;;0.60;0.60;;;;;;;17.70;94.28;100519.75;4973625;28;20253;-75
2022/08/21 07:16:13;;;;;;;0.77;0.77;;;;;;;17.66;93.83;100504.22;4973666;28;20481;-75
2022/08/21 07:18:39;;;;;;;0.17;0.17;;;;;;;17.61;93.84;100510.81;4973730;28;20245;-75
2022/08/21 07:21:08;;;;;;;0.60;0.60;;;;;;;17.55;93.82;100512.25;4973674;28;20182;-75
2022/08/21 07:23:36;;;;;;;0.70;0.70;;;;;;;17.60;93.82;100509.19;4971990;28;20177;-74
2022/08/21 07:26:04;;;;;;;4.77;3.17;;;;;;;17.76;91.65;100506.47;4973839;28;20268;-75
2022/08/21 07:28:29;;;;;;;0.43;0.43;;;;;;;17.91;88.96;100499.31;4973412;28;20209;-74
2022/08/21 07:30:57;;;;;;;0.50;0.50;;;;;;;18.05;88.01;100500.44;4972736;28;20208;-77
2022/08/21 07:33:24;;;;;;;1.83;1.73;;;;;;;18.15;86.05;100493.56;4971702;28;20205;-77
2022/08/21 07:35:49;;;;;;;1.20;1.00;;;;;;;18.24;85.08;100499.69;4973451;28;20178;-77
2022/08/21 07:38:15;;;;;;;3.80;2.07;;;;;;;18.39;84.25;100493.31;4973332;28;20553;-75
2022/08/21 07:40:40;;;;;;;1.50;1.40;;;;;;;18.49;82.80;100502.16;4972077;28;20201;-76
2022/08/21 07:43:06;;;;;;;4.10;1.13;;;;;;;18.62;82.93;100498.91;4973666;28;20552;-76
2022/08/21 07:45:31;;;;;;;1.90;1.27;;;;;;;18.71;82.35;100501.50;4973047;28;20186;-76
2022/08/21 07:47:57;;;;;;;0.33;0.33;;;;;;;18.81;81.78;100495.38;4973305;28;20185;-76
2022/08/21 07:50:22;;;;;;;1.27;0.77;;;;;;;18.99;79.52;100496.50;4973125;28;20182;-76
2022/08/21 07:52:47;;;;;;;1.37;1.07;;;;;;;19.14;77.82;100492.03;4971761;28;20217;-77
2022/08/21 07:55:16;;;;;;;0.90;0.67;;;;;;;19.22;74.99;100501.25;4971339;28;20309;-76
2022/08/21 07:57:42;;;;;;;0.00;0.00;;;;;;;19.12;74.94;100499.09;4971560;28;20240;-76
2022/08/21 08:00:10;;;;;;;0.67;0.67;;;;;;;19.01;77.03;100496.94;4973100;28;20190;-76
2022/08/21 08:02:35;;;;;;;0.77;0.50;;;;;;;18.95;77.94;100498.41;4972598;28;20178;-76
2022/08/21 08:05:06;;;;;;;1.60;0.70;;;;;;;18.82;78.51;100496.16;4972642;28;20545;-76
2022/08/21 08:07:31;;;;;;;2.03;1.93;;;;;;;18.86;79.38;100488.72;4973266;28;20178;-76
2022/08/21 08:09:58;;;;;;;0.00;0.00;;;;;;;19.02;78.18;100486.66;4972626;28;20587;-76
2022/08/21 08:12:28;;;;;;;0.00;0.00;;;;;;;19.16;76.23;100497.19;4972899;28;20756;-76
2022/08/21 08:14:54;;;;;;;0.90;0.90;;;;;;;19.27;74.98;100496.22;4972491;28;20174;-76
2022/08/21 08:17:23;;;;;;;0.53;0.53;;;;;;;19.45;74.38;100490.97;4972805;28;20536;-76
2022/08/21 08:19:49;;;;;;;0.10;0.10;;;;;;;19.53;74.24;100497.47;4971285;28;20198;-76
2022/08/21 08:22:18;;;;;;;0.23;0.23;;;;;;;19.60;73.36;100487.31;4972425;28;20240;-76
2022/08/21 08:24:44;;;;;;;1.23;1.13;;;;;;;19.73;73.26;100489.88;4972244;28;20182;-76
2022/08/21 08:27:09;;;;;;;1.13;1.07;;;;;;;19.74;72.60;100486.72;4972562;28;20189;-76
2022/08/21 08:29:35;;;;;;;0.10;0.10;;;;;;;19.85;72.72;100482.16;4971192;28;20190;-76
2022/08/21 08:32:00;;;;;;;0.60;0.60;;;;;;;19.86;72.45;100480.19;4972394;28;20665;-76
2022/08/21 08:34:25;;;;;;;0.87;0.87;;;;;;;20.00;72.54;100487.91;4972121;28;20174;-76
2022/08/21 08:36:51;;;;;;;1.13;0.53;;;;;;;20.12;72.83;100490.47;4972640;28;20183;-76
2022/08/21 08:39:16;;;;;;;0.17;0.00;;;;;;;20.24;72.14;100489.44;4972254;28;20182;-76
2022/08/21 08:41:46;;;;;;;1.33;0.70;;;;;;;20.30;71.22;100493.50;4972132;28;20233;-76
2022/08/21 08:44:12;;;;;;;0.20;0.20;;;;;;;20.33;70.87;100489.97;4971981;28;20185;-76
2022/08/21 08:46:43;;;;;;;0.30;0.30;;;;;;;20.39;71.30;100483.69;4970710;28;20186;-76
2022/08/21 08:49:20;;;;;;;0.57;0.20;;;;;;;20.52;71.18;100484.28;4972064;28;20241;-76
2022/08/21 08:51:53;;;;;;;0.43;0.33;;;;;;;20.63;69.44;100488.00;4971920;28;20221;-76
2022/08/21 08:54:25;;;;;;;1.00;1.00;;;;;;;20.65;67.35;100491.19;4970297;28;20556;-76
2022/08/21 08:56:52;;;;;;;0.57;0.57;;;;;;;20.68;66.47;100484.06;4970984;28;20538;-76
2022/08/21 08:59:27;;;;;;;0.87;0.40;;;;;;;20.77;66.17;100481.81;4970693;28;20556;-77
2022/08/21 09:01:53;;;;;;;0.10;0.10;;;;;;;20.85;66.49;100479.91;4971586;28;20165;-77
2022/08/21 09:04:24;;;;;;;0.00;0.00;;;;;;;21.06;65.75;100483.72;4971833;28;20180;-76
2022/08/21 09:06:53;;;;;;;0.00;0.00;;;;;;;21.04;62.52;100474.97;4970651;28;20176;-76
2022/08/21 09:09:40;;;;;;;0.00;0.00;;;;;;;21.08;63.66;100478.56;4971955;28;20271;-76
2022/08/21 09:12:14;;;;;;;0.13;0.10;;;;;;;21.30;63.51;100478.81;4971594;28;20244;-76
2022/08/21 09:15:04;;;;;;;0.57;0.50;;;;;;;21.52;61.09;100479.78;4970182;28;20171;-75
2022/08/21 09:17:36;;;;;;;0.20;0.20;;;;;;;21.57;60.37;100468.31;4971883;28;20217;-75
2022/08/21 09:20:33;;;;;;;9.57;0.50;;;;;;;21.67;59.39;100473.94;4971806;28;20631;-75
2022/08/21 09:23:04;;;;;;;0.00;0.00;;;;;;;21.78;59.64;100476.00;4971691;28;20182;-75
2022/08/21 09:26:01;;;;;;;1.17;1.07;;;;;;;21.75;58.92;100463.69;4971385;28;20177;-75
2022/08/21 09:28:31;;;;;;;3.60;1.50;;;;;;;21.73;58.01;100479.97;4968335;28;20194;-74
2022/08/21 09:31:02;;;;;;;0.00;0.00;;;;;;;21.76;58.72;100470.03;4970234;28;20662;-75
2022/08/21 09:33:28;;;;;;;0.47;0.47;;;;;;;21.88;57.59;100467.75;4971217;28;20244;-75
2022/08/21 09:35:57;;;;;;;0.10;0.10;;;;;;;21.90;57.96;100470.94;4971619;28;20175;-75
2022/08/21 09:38:41;;;;;;;0.40;0.40;;;;;;;21.91;58.22;100464.19;4971391;28;20667;-75
2022/08/21 09:41:09;;;;;;;0.00;0.00;;;;;;;22.07;58.93;100463.91;4971467;28;20178;-76
2022/08/21 09:43:35;;;;;;;0.00;0.00;;;;;;;22.17;58.46;100465.97;4971425;28;20389;-76
2022/08/21 09:46:11;;;;;;;1.07;0.57;;;;;;;22.32;56.57;100466.84;4971411;28;20174;-76
2022/08/21 09:48:42;;;;;;;0.10;0.10;;;;;;;22.48;57.38;100466.50;4971709;28;20210;-75
2022/08/21 09:51:11;;;;;;;0.00;0.00;;;;;;;22.53;56.13;100464.13;4971391;28;20519;-76
2022/08/21 09:53:42;;;;;;;0.00;0.00;;;;;;;22.50;56.32;100461.34;4971019;28;20219;-76
2022/08/21 09:59:15;;;;;;;0.20;0.20;;;;;;;22.65;54.89;100465.75;4975521;28;20191;-75
2022/08/21 10:01:50;;;;;;;0.00;0.00;;;;;;;22.72;56.93;100462.22;4975127;28;20333;-76
2022/08/21 10:04:20;;;;;;;0.00;0.00;;;;;;;22.83;55.21;100463.06;4974972;28;20636;-76
2022/08/21 10:06:45;;;;;;;0.00;0.00;;;;;;;22.84;54.44;100454.28;4975102;28;20661;-76
2022/08/21 10:09:17;;;;;;;0.00;0.00;;;;;;;22.84;53.72;100454.28;4975072;28;20217;-76
2022/08/21 10:11:52;;;;;;;0.00;0.00;;;;;;;22.66;53.27;100459.00;4974999;28;20213;-75
2022/08/21 10:14:28;;;;;;;0.80;0.80;;;;;;;22.69;53.69;100449.06;4974933;28;20185;-75
2022/08/21 10:17:20;;;;;;;0.13;0.13;;;;;;;22.88;52.76;100439.59;4974860;28;20271;-75
2022/08/21 10:20:00;;;;;;;0.00;0.00;;;;;;;22.98;51.84;100438.81;4974819;28;20639;-75
2022/08/21 10:22:48;;;;;;;0.47;0.47;;;;;;;22.86;51.86;100445.56;4974750;28;20181;-75
2022/08/21 10:25:30;;;;;;;0.00;0.00;;;;;;;22.75;51.79;100439.16;4974533;28;20214;-75
2022/08/21 10:28:17;;;;;;;0.27;0.27;;;;;;;22.87;52.36;100444.38;4974633;28;20181;-75
2022/08/21 10:30:55;;;;;;;0.20;0.20;;;;;;;22.67;52.63;100438.31;4974483;28;20187;-75
2022/08/21 10:34:02;;;;;;;0.00;0.00;;;;;;;22.91;53.92;100434.03;4974274;28;20214;-75
2022/08/21 10:36:35;;;;;;;0.20;0.20;;;;;;;23.21;51.06;100441.22;4974466;28;20477;-75
2022/08/21 10:39:32;;;;;;;1.17;0.40;;;;;;;23.30;51.91;100438.84;4974821;28;20166;-75
2022/08/21 10:42:11;;;;;;;0.43;0.43;;;;;;;23.49;50.60;100426.50;4973075;28;20549;-76
2022/08/21 10:44:43;;;;;;;0.30;0.30;;;;;;;23.58;50.72;100427.72;4974383;28;20181;-75
2022/08/21 10:47:09;;;;;;;0.00;0.00;;;;;;;23.72;50.79;100430.50;4974325;28;20180;-76
2022/08/21 10:49:37;;;;;;;0.87;0.73;;;;;;;23.56;51.66;100430.06;4974690;28;20273;-75
2022/08/21 10:52:26;;;;;;;3.60;1.60;;;;;;;23.47;51.25;100431.69;4974194;28;20677;-75
2022/08/21 10:55:17;;;;;;;0.00;0.00;;;;;;;23.34;51.89;100420.91;4973820;28;20642;-75
2022/08/21 10:58:04;;;;;;;2.03;1.50;;;;;;;23.57;51.56;100419.69;4974157;28;20270;-75
2022/08/21 11:00:45;;;;;;;0.00;0.00;;;;;;;23.71;50.73;100417.72;4974174;28;20543;-76
2022/08/21 11:03:17;;;;;;;1.60;0.83;;;;;;;23.68;51.38;100415.72;4973978;28;20176;-75
2022/08/21 11:06:03;;;;;;;0.33;0.33;;;;;;;23.87;50.16;100417.31;4972821;28;20205;-75
2022/08/21 11:08:31;;;;;;;1.07;0.70;;;;;;;24.06;48.88;100418.03;4972726;28;20822;-75
2022/08/21 11:11:18;;;;;;;0.00;0.00;;;;;;;24.24;49.54;100413.19;4973937;28;20182;-75
2022/08/21 11:13:55;;;;;;;0.00;0.00;;;;;;;24.56;47.64;100416.63;4973627;28;20668;-75
2022/08/21 11:16:40;;;;;;;0.97;0.57;;;;;;;24.65;47.16;100413.41;4973850;28;20180;-76
2022/08/21 11:19:33;;;;;;;0.07;0.07;;;;;;;24.66;46.69;100411.41;4973910;28;20697;-75
2022/08/21 11:22:37;;;;;;;0.00;0.00;;;;;;;24.91;46.50;100418.44;4955747;28;20240;-76
2022/08/21 11:25:17;;;;;;;2.57;1.37;;;;;;;25.14;45.70;100414.28;4973656;28;20192;-75
2022/08/21 11:27:48;;;;;;;0.43;0.43;;;;;;;24.96;45.66;100410.81;4973776;28;20178;-75
2022/08/21 11:30:15;;;;;;;0.00;0.00;;;;;;;24.84;45.55;100415.69;4973705;28;20185;-75
2022/08/21 11:32:57;;;;;;;0.23;0.20;;;;;;;24.70;46.68;100406.59;4973441;28;20659;-75
2022/08/21 11:35:47;;;;;;;0.13;0.10;;;;;;;24.68;47.07;100409.78;4973584;28;20634;-75